sensor_id;sensor_type;location;lat;lon;timestamp;P1;durP1;ratioP1;P2;durP2;ratioP2
13743;SDS011;6943;52.368;9.966;2023-05-10T00:02:00;5.57;;;4.10;;
13743;SDS011;6943;52.368;9.966;2023-05-10T00:04:27;7.23;;;4.13;;
13743;SDS011;6943;52.368;9.966;2023-05-10T00:06:53;6.03;;;4.17;;
13743;SDS011;6943;52.368;9.966;2023-05-10T00:09:19;7.03;;;3.90;;
13743;SDS011;6943;52.368;9.966;2023-05-10T00:11:45;3.77;;;3.47;;
13743;SDS011;6943;52.368;9.966;2023-05-10T00:14:11;6.57;;;4.03;;
13743;SDS011;6943;52.368;9.966;2023-05-10T00:16:37;7.63;;;4.20;;
13743;SDS011;6943;52.368;9.966;2023-05-10T00:19:03;5.83;;;4.80;;
13743;SDS011;6943;52.368;9.966;2023-05-10T00:21:29;4.77;;;4.07;;
13743;SDS011;6943;52.368;9.966;2023-05-10T00:23:55;5.10;;;4.17;;
13743;SDS011;6943;52.368;9.966;2023-05-10T00:26:21;4.23;;;3.87;;
13743;SDS011;6943;52.368;9.966;2023-05-10T00:28:47;5.33;;;4.37;;
13743;SDS011;6943;52.368;9.966;2023-05-10T00:31:13;5.10;;;4.07;;
13743;SDS011;6943;52.368;9.966;2023-05-10T00:33:39;4.97;;;4.23;;
13743;SDS011;6943;52.368;9.966;2023-05-10T00:36:05;7.20;;;4.97;;
13743;SDS011;6943;52.368;9.966;2023-05-10T00:38:32;6.13;;;4.30;;
13743;SDS011;6943;52.368;9.966;2023-05-10T00:40:58;5.67;;;4.50;;
13743;SDS011;6943;52.368;9.966;2023-05-10T00:43:24;6.03;;;4.40;;
13743;SDS011;6943;52.368;9.966;2023-05-10T00:45:50;6.17;;;4.60;;
13743;SDS011;6943;52.368;9.966;2023-05-10T00:48:16;7.17;;;4.47;;
13743;SDS011;6943;52.368;9.966;2023-05-10T00:50:42;5.57;;;4.60;;
13743;SDS011;6943;52.368;9.966;2023-05-10T00:53:08;4.97;;;4.30;;
13743;SDS011;6943;52.368;9.966;2023-05-10T00:55:35;6.03;;;4.67;;
13743;SDS011;6943;52.368;9.966;2023-05-10T00:58:01;5.63;;;4.17;;
13743;SDS011;6943;52.368;9.966;2023-05-10T01:00:27;5.97;;;4.57;;
13743;SDS011;6943;52.368;9.966;2023-05-10T01:02:54;5.50;;;4.83;;
13743;SDS011;6943;52.368;9.966;2023-05-10T01:05:20;5.37;;;4.57;;
13743;SDS011;6943;52.368;9.966;2023-05-10T01:07:46;5.87;;;4.97;;
13743;SDS011;6943;52.368;9.966;2023-05-10T01:10:13;5.90;;;4.60;;
13743;SDS011;6943;52.368;9.966;2023-05-10T01:12:39;5.90;;;4.73;;
13743;SDS011;6943;52.368;9.966;2023-05-10T01:15:06;5.87;;;5.27;;
13743;SDS011;6943;52.368;9.966;2023-05-10T01:17:33;7.77;;;5.03;;
13743;SDS011;6943;52.368;9.966;2023-05-10T01:20:00;7.00;;;4.70;;
13743;SDS011;6943;52.368;9.966;2023-05-10T01:24:57;6.73;;;5.60;;
13743;SDS011;6943;52.368;9.966;2023-05-10T01:30:20;5.97;;;5.37;;
13743;SDS011;6943;52.368;9.966;2023-05-10T01:33:00;9.83;;;5.50;;
13743;SDS011;6943;52.368;9.966;2023-05-10T01:35:32;6.17;;;5.47;;
13743;SDS011;6943;52.368;9.966;2023-05-10T01:43:11;6.67;;;5.40;;
13743;SDS011;6943;52.368;9.966;2023-05-10T01:48:11;6.43;;;5.70;;
13743;SDS011;6943;52.368;9.966;2023-05-10T01:50:40;7.73;;;5.50;;
13743;SDS011;6943;52.368;9.966;2023-05-10T01:53:08;6.53;;;5.93;;
13743;SDS011;6943;52.368;9.966;2023-05-10T01:55:45;6.50;;;5.90;;
13743;SDS011;6943;52.368;9.966;2023-05-10T01:58:17;7.20;;;5.97;;
13743;SDS011;6943;52.368;9.966;2023-05-10T02:00:44;6.13;;;5.53;;
13743;SDS011;6943;52.368;9.966;2023-05-10T02:03:11;6.63;;;5.93;;
13743;SDS011;6943;52.368;9.966;2023-05-10T02:05:38;6.63;;;5.83;;
13743;SDS011;6943;52.368;9.966;2023-05-10T02:08:05;7.60;;;6.17;;
13743;SDS011;6943;52.368;9.966;2023-05-10T02:10:32;11.07;;;6.87;;
13743;SDS011;6943;52.368;9.966;2023-05-10T02:12:58;6.90;;;6.03;;
13743;SDS011;6943;52.368;9.966;2023-05-10T02:15:25;8.53;;;5.97;;
13743;SDS011;6943;52.368;9.966;2023-05-10T02:17:52;8.10;;;6.37;;
13743;SDS011;6943;52.368;9.966;2023-05-10T02:20:20;8.70;;;6.53;;
13743;SDS011;6943;52.368;9.966;2023-05-10T02:22:48;7.37;;;6.33;;
13743;SDS011;6943;52.368;9.966;2023-05-10T02:25:14;6.37;;;5.77;;
13743;SDS011;6943;52.368;9.966;2023-05-10T02:27:41;8.37;;;6.40;;
13743;SDS011;6943;52.368;9.966;2023-05-10T02:30:08;7.17;;;6.03;;
13743;SDS011;6943;52.368;9.966;2023-05-10T02:32:35;6.50;;;5.83;;
13743;SDS011;6943;52.368;9.966;2023-05-10T02:35:02;8.63;;;6.57;;
13743;SDS011;6943;52.368;9.966;2023-05-10T02:37:29;6.80;;;6.20;;
13743;SDS011;6943;52.368;9.966;2023-05-10T02:39:55;7.30;;;6.50;;
13743;SDS011;6943;52.368;9.966;2023-05-10T02:42:23;6.57;;;5.97;;
13743;SDS011;6943;52.368;9.966;2023-05-10T02:44:50;7.23;;;6.53;;
13743;SDS011;6943;52.368;9.966;2023-05-10T02:47:16;7.10;;;6.40;;
13743;SDS011;6943;52.368;9.966;2023-05-10T02:49:43;8.70;;;6.63;;
13743;SDS011;6943;52.368;9.966;2023-05-10T02:52:09;7.57;;;5.87;;
13743;SDS011;6943;52.368;9.966;2023-05-10T02:54:39;7.77;;;6.80;;
13743;SDS011;6943;52.368;9.966;2023-05-10T02:57:07;8.27;;;6.67;;
13743;SDS011;6943;52.368;9.966;2023-05-10T02:59:34;9.00;;;7.50;;
13743;SDS011;6943;52.368;9.966;2023-05-10T03:02:00;10.20;;;7.50;;
13743;SDS011;6943;52.368;9.966;2023-05-10T03:04:27;7.70;;;7.00;;
13743;SDS011;6943;52.368;9.966;2023-05-10T03:06:52;8.10;;;6.50;;
13743;SDS011;6943;52.368;9.966;2023-05-10T03:09:18;7.80;;;6.60;;
13743;SDS011;6943;52.368;9.966;2023-05-10T03:11:56;8.93;;;7.30;;
13743;SDS011;6943;52.368;9.966;2023-05-10T03:14:44;9.23;;;8.20;;
13743;SDS011;6943;52.368;9.966;2023-05-10T03:17:13;10.50;;;7.33;;
13743;SDS011;6943;52.368;9.966;2023-05-10T03:19:56;7.37;;;6.70;;
13743;SDS011;6943;52.368;9.966;2023-05-10T03:22:27;7.70;;;6.93;;
13743;SDS011;6943;52.368;9.966;2023-05-10T03:24:55;8.87;;;6.37;;
13743;SDS011;6943;52.368;9.966;2023-05-10T03:27:22;7.73;;;7.03;;
13743;SDS011;6943;52.368;9.966;2023-05-10T03:29:49;7.87;;;6.70;;
13743;SDS011;6943;52.368;9.966;2023-05-10T03:32:16;7.63;;;6.83;;
13743;SDS011;6943;52.368;9.966;2023-05-10T03:34:42;7.33;;;6.63;;
13743;SDS011;6943;52.368;9.966;2023-05-10T03:37:08;8.83;;;6.73;;
13743;SDS011;6943;52.368;9.966;2023-05-10T03:39:34;9.13;;;7.10;;
13743;SDS011;6943;52.368;9.966;2023-05-10T03:42:00;7.70;;;6.23;;
13743;SDS011;6943;52.368;9.966;2023-05-10T03:44:26;12.53;;;7.07;;
13743;SDS011;6943;52.368;9.966;2023-05-10T03:46:52;7.87;;;7.17;;
13743;SDS011;6943;52.368;9.966;2023-05-10T03:49:18;10.70;;;7.23;;
13743;SDS011;6943;52.368;9.966;2023-05-10T03:51:44;8.20;;;7.40;;
13743;SDS011;6943;52.368;9.966;2023-05-10T03:54:10;7.77;;;7.07;;
13743;SDS011;6943;52.368;9.966;2023-05-10T03:56:36;7.80;;;7.10;;
13743;SDS011;6943;52.368;9.966;2023-05-10T03:59:02;8.67;;;7.87;;
13743;SDS011;6943;52.368;9.966;2023-05-10T04:01:32;8.20;;;7.40;;
13743;SDS011;6943;52.368;9.966;2023-05-10T04:03:57;9.00;;;7.60;;
13743;SDS011;6943;52.368;9.966;2023-05-10T04:06:23;7.87;;;7.07;;
13743;SDS011;6943;52.368;9.966;2023-05-10T04:08:49;8.00;;;7.20;;
13743;SDS011;6943;52.368;9.966;2023-05-10T04:11:15;8.37;;;7.00;;
13743;SDS011;6943;52.368;9.966;2023-05-10T04:13:41;8.13;;;7.17;;
13743;SDS011;6943;52.368;9.966;2023-05-10T04:16:07;8.30;;;7.17;;
13743;SDS011;6943;52.368;9.966;2023-05-10T04:18:33;8.23;;;7.43;;
13743;SDS011;6943;52.368;9.966;2023-05-10T04:21:00;9.17;;;7.20;;
13743;SDS011;6943;52.368;9.966;2023-05-10T04:23:26;8.20;;;7.40;;
13743;SDS011;6943;52.368;9.966;2023-05-10T04:25:52;8.83;;;7.97;;
13743;SDS011;6943;52.368;9.966;2023-05-10T04:28:18;10.53;;;7.93;;
13743;SDS011;6943;52.368;9.966;2023-05-10T04:30:44;9.60;;;6.93;;
13743;SDS011;6943;52.368;9.966;2023-05-10T04:33:10;9.33;;;7.30;;
13743;SDS011;6943;52.368;9.966;2023-05-10T04:35:36;8.57;;;7.40;;
13743;SDS011;6943;52.368;9.966;2023-05-10T04:38:02;8.43;;;7.63;;
13743;SDS011;6943;52.368;9.966;2023-05-10T04:40:28;9.03;;;8.13;;
13743;SDS011;6943;52.368;9.966;2023-05-10T04:42:54;8.83;;;7.93;;
13743;SDS011;6943;52.368;9.966;2023-05-10T04:45:20;9.83;;;8.43;;
13743;SDS011;6943;52.368;9.966;2023-05-10T04:47:46;9.13;;;8.23;;
13743;SDS011;6943;52.368;9.966;2023-05-10T04:50:12;9.60;;;8.60;;
13743;SDS011;6943;52.368;9.966;2023-05-10T04:52:38;10.43;;;8.53;;
13743;SDS011;6943;52.368;9.966;2023-05-10T04:55:04;9.73;;;8.67;;
13743;SDS011;6943;52.368;9.966;2023-05-10T04:57:32;10.67;;;8.20;;
13743;SDS011;6943;52.368;9.966;2023-05-10T04:59:59;9.57;;;8.67;;
13743;SDS011;6943;52.368;9.966;2023-05-10T05:02:25;9.63;;;8.70;;
13743;SDS011;6943;52.368;9.966;2023-05-10T05:04:51;11.70;;;8.23;;
13743;SDS011;6943;52.368;9.966;2023-05-10T05:07:17;8.60;;;7.73;;
13743;SDS011;6943;52.368;9.966;2023-05-10T05:09:43;9.83;;;8.70;;
13743;SDS011;6943;52.368;9.966;2023-05-10T05:12:09;10.60;;;8.93;;
13743;SDS011;6943;52.368;9.966;2023-05-10T05:14:38;11.50;;;9.33;;
13743;SDS011;6943;52.368;9.966;2023-05-10T05:17:04;10.57;;;8.97;;
13743;SDS011;6943;52.368;9.966;2023-05-10T05:19:31;9.30;;;8.40;;
13743;SDS011;6943;52.368;9.966;2023-05-10T05:21:57;10.03;;;9.03;;
13743;SDS011;6943;52.368;9.966;2023-05-10T05:24:22;9.43;;;8.47;;
13743;SDS011;6943;52.368;9.966;2023-05-10T05:26:48;11.43;;;10.20;;
13743;SDS011;6943;52.368;9.966;2023-05-10T05:29:14;14.27;;;10.10;;
13743;SDS011;6943;52.368;9.966;2023-05-10T05:31:40;9.90;;;8.97;;
13743;SDS011;6943;52.368;9.966;2023-05-10T05:34:06;11.00;;;9.40;;
13743;SDS011;6943;52.368;9.966;2023-05-10T05:36:32;11.33;;;9.70;;
13743;SDS011;6943;52.368;9.966;2023-05-10T05:39:03;10.97;;;9.13;;
13743;SDS011;6943;52.368;9.966;2023-05-10T05:41:28;10.63;;;9.53;;
13743;SDS011;6943;52.368;9.966;2023-05-10T05:43:54;10.57;;;9.47;;
13743;SDS011;6943;52.368;9.966;2023-05-10T05:46:20;10.53;;;9.43;;
13743;SDS011;6943;52.368;9.966;2023-05-10T05:48:46;9.80;;;8.80;;
13743;SDS011;6943;52.368;9.966;2023-05-10T05:51:12;10.73;;;9.63;;
13743;SDS011;6943;52.368;9.966;2023-05-10T05:53:39;10.33;;;9.30;;
13743;SDS011;6943;52.368;9.966;2023-05-10T05:56:05;11.47;;;10.27;;
13743;SDS011;6943;52.368;9.966;2023-05-10T05:58:31;11.17;;;10.07;;
13743;SDS011;6943;52.368;9.966;2023-05-10T06:00:57;13.40;;;9.63;;
13743;SDS011;6943;52.368;9.966;2023-05-10T06:03:22;11.40;;;10.20;;
13743;SDS011;6943;52.368;9.966;2023-05-10T06:05:48;11.60;;;10.40;;
13743;SDS011;6943;52.368;9.966;2023-05-10T06:08:14;10.13;;;9.13;;
13743;SDS011;6943;52.368;9.966;2023-05-10T06:10:40;12.13;;;9.77;;
13743;SDS011;6943;52.368;9.966;2023-05-10T06:13:06;11.03;;;9.80;;
13743;SDS011;6943;52.368;9.966;2023-05-10T06:15:32;10.87;;;9.43;;
13743;SDS011;6943;52.368;9.966;2023-05-10T06:17:58;10.43;;;9.40;;
13743;SDS011;6943;52.368;9.966;2023-05-10T06:20:24;11.07;;;9.67;;
13743;SDS011;6943;52.368;9.966;2023-05-10T06:22:50;10.53;;;9.57;;
13743;SDS011;6943;52.368;9.966;2023-05-10T06:25:16;10.30;;;9.27;;
13743;SDS011;6943;52.368;9.966;2023-05-10T06:27:43;11.27;;;9.33;;
13743;SDS011;6943;52.368;9.966;2023-05-10T06:30:09;9.87;;;8.83;;
13743;SDS011;6943;52.368;9.966;2023-05-10T06:32:36;9.57;;;8.73;;
13743;SDS011;6943;52.368;9.966;2023-05-10T06:35:02;8.80;;;8.00;;
13743;SDS011;6943;52.368;9.966;2023-05-10T06:37:28;9.97;;;8.53;;
13743;SDS011;6943;52.368;9.966;2023-05-10T06:39:54;10.33;;;7.97;;
13743;SDS011;6943;52.368;9.966;2023-05-10T06:42:20;9.97;;;8.57;;
13743;SDS011;6943;52.368;9.966;2023-05-10T06:44:46;9.07;;;8.17;;
13743;SDS011;6943;52.368;9.966;2023-05-10T06:47:12;10.97;;;8.67;;
13743;SDS011;6943;52.368;9.966;2023-05-10T06:49:37;9.60;;;8.70;;
13743;SDS011;6943;52.368;9.966;2023-05-10T06:52:03;9.47;;;8.50;;
13743;SDS011;6943;52.368;9.966;2023-05-10T06:54:29;9.80;;;7.80;;
13743;SDS011;6943;52.368;9.966;2023-05-10T06:56:56;10.23;;;8.67;;
13743;SDS011;6943;52.368;9.966;2023-05-10T06:59:22;8.03;;;7.23;;
13743;SDS011;6943;52.368;9.966;2023-05-10T07:01:48;9.07;;;8.17;;
13743;SDS011;6943;52.368;9.966;2023-05-10T07:04:14;10.10;;;8.73;;
13743;SDS011;6943;52.368;9.966;2023-05-10T07:06:40;9.20;;;8.00;;
13743;SDS011;6943;52.368;9.966;2023-05-10T07:09:06;9.20;;;8.30;;
13743;SDS011;6943;52.368;9.966;2023-05-10T07:11:32;10.73;;;8.10;;
13743;SDS011;6943;52.368;9.966;2023-05-10T07:13:58;8.90;;;8.10;;
13743;SDS011;6943;52.368;9.966;2023-05-10T07:16:24;9.77;;;7.93;;
13743;SDS011;6943;52.368;9.966;2023-05-10T07:18:50;9.53;;;8.53;;
13743;SDS011;6943;52.368;9.966;2023-05-10T07:21:17;9.30;;;8.40;;
13743;SDS011;6943;52.368;9.966;2023-05-10T07:23:43;9.27;;;7.83;;
13743;SDS011;6943;52.368;9.966;2023-05-10T07:26:09;10.17;;;8.47;;
13743;SDS011;6943;52.368;9.966;2023-05-10T07:28:36;8.20;;;7.40;;
13743;SDS011;6943;52.368;9.966;2023-05-10T07:31:03;9.27;;;8.43;;
13743;SDS011;6943;52.368;9.966;2023-05-10T07:33:29;9.00;;;7.57;;
13743;SDS011;6943;52.368;9.966;2023-05-10T07:35:55;8.03;;;7.23;;
13743;SDS011;6943;52.368;9.966;2023-05-10T07:38:21;7.67;;;6.80;;
13743;SDS011;6943;52.368;9.966;2023-05-10T07:40:48;7.47;;;6.57;;
13743;SDS011;6943;52.368;9.966;2023-05-10T07:43:14;7.63;;;6.83;;
13743;SDS011;6943;52.368;9.966;2023-05-10T07:45:40;7.70;;;6.57;;
13743;SDS011;6943;52.368;9.966;2023-05-10T07:48:06;7.83;;;6.87;;
13743;SDS011;6943;52.368;9.966;2023-05-10T07:50:31;7.03;;;6.30;;
13743;SDS011;6943;52.368;9.966;2023-05-10T07:52:57;7.43;;;6.07;;
13743;SDS011;6943;52.368;9.966;2023-05-10T07:55:23;6.97;;;6.00;;
13743;SDS011;6943;52.368;9.966;2023-05-10T07:57:49;8.70;;;6.27;;
13743;SDS011;6943;52.368;9.966;2023-05-10T08:00:19;8.20;;;6.60;;
13743;SDS011;6943;52.368;9.966;2023-05-10T08:02:45;7.20;;;6.43;;
13743;SDS011;6943;52.368;9.966;2023-05-10T08:05:11;6.80;;;6.03;;
13743;SDS011;6943;52.368;9.966;2023-05-10T08:07:37;7.27;;;6.57;;
13743;SDS011;6943;52.368;9.966;2023-05-10T08:10:04;7.50;;;6.80;;
13743;SDS011;6943;52.368;9.966;2023-05-10T08:12:30;7.93;;;6.70;;
13743;SDS011;6943;52.368;9.966;2023-05-10T08:14:56;7.37;;;6.77;;
13743;SDS011;6943;52.368;9.966;2023-05-10T08:17:22;6.57;;;5.90;;
13743;SDS011;6943;52.368;9.966;2023-05-10T08:19:48;8.07;;;6.57;;
13743;SDS011;6943;52.368;9.966;2023-05-10T08:22:14;8.70;;;7.33;;
13743;SDS011;6943;52.368;9.966;2023-05-10T08:24:40;7.83;;;7.13;;
13743;SDS011;6943;52.368;9.966;2023-05-10T08:27:07;7.33;;;6.60;;
13743;SDS011;6943;52.368;9.966;2023-05-10T08:29:33;7.50;;;6.80;;
13743;SDS011;6943;52.368;9.966;2023-05-10T08:31:58;6.00;;;5.50;;
13743;SDS011;6943;52.368;9.966;2023-05-10T08:34:25;6.73;;;5.33;;
13743;SDS011;6943;52.368;9.966;2023-05-10T08:36:51;6.50;;;5.90;;
13743;SDS011;6943;52.368;9.966;2023-05-10T08:39:17;7.13;;;6.47;;
13743;SDS011;6943;52.368;9.966;2023-05-10T08:41:44;10.47;;;5.40;;
13743;SDS011;6943;52.368;9.966;2023-05-10T08:44:10;6.40;;;5.67;;
13743;SDS011;6943;52.368;9.966;2023-05-10T08:46:36;5.10;;;4.60;;
13743;SDS011;6943;52.368;9.966;2023-05-10T08:49:04;4.00;;;3.60;;
13743;SDS011;6943;52.368;9.966;2023-05-10T08:51:39;4.90;;;4.43;;
13743;SDS011;6943;52.368;9.966;2023-05-10T08:54:06;3.80;;;3.40;;
13743;SDS011;6943;52.368;9.966;2023-05-10T08:56:32;3.97;;;3.17;;
13743;SDS011;6943;52.368;9.966;2023-05-10T08:58:58;3.60;;;2.90;;
13743;SDS011;6943;52.368;9.966;2023-05-10T09:01:24;3.27;;;2.97;;
13743;SDS011;6943;52.368;9.966;2023-05-10T09:03:50;3.23;;;2.70;;
13743;SDS011;6943;52.368;9.966;2023-05-10T09:06:16;3.13;;;2.73;;
13743;SDS011;6943;52.368;9.966;2023-05-10T09:08:42;2.97;;;2.50;;
13743;SDS011;6943;52.368;9.966;2023-05-10T09:11:09;2.53;;;2.33;;
13743;SDS011;6943;52.368;9.966;2023-05-10T09:13:35;2.70;;;2.50;;
13743;SDS011;6943;52.368;9.966;2023-05-10T09:16:02;2.70;;;2.30;;
13743;SDS011;6943;52.368;9.966;2023-05-10T09:18:28;2.10;;;2.00;;
13743;SDS011;6943;52.368;9.966;2023-05-10T09:20:54;1.70;;;1.60;;
13743;SDS011;6943;52.368;9.966;2023-05-10T09:23:20;2.57;;;1.73;;
13743;SDS011;6943;52.368;9.966;2023-05-10T09:25:47;2.40;;;1.70;;
13743;SDS011;6943;52.368;9.966;2023-05-10T09:28:12;1.63;;;1.53;;
13743;SDS011;6943;52.368;9.966;2023-05-10T09:30:38;1.70;;;1.60;;
13743;SDS011;6943;52.368;9.966;2023-05-10T09:33:05;1.93;;;1.73;;
13743;SDS011;6943;52.368;9.966;2023-05-10T09:35:31;2.37;;;1.77;;
13743;SDS011;6943;52.368;9.966;2023-05-10T09:38:02;2.50;;;1.90;;
13743;SDS011;6943;52.368;9.966;2023-05-10T09:40:29;2.53;;;2.10;;
13743;SDS011;6943;52.368;9.966;2023-05-10T09:42:56;2.23;;;2.03;;
13743;SDS011;6943;52.368;9.966;2023-05-10T09:45:23;4.00;;;2.80;;
13743;SDS011;6943;52.368;9.966;2023-05-10T09:47:50;2.23;;;1.90;;
13743;SDS011;6943;52.368;9.966;2023-05-10T09:50:15;3.17;;;2.83;;
13743;SDS011;6943;52.368;9.966;2023-05-10T09:52:46;2.70;;;2.50;;
13743;SDS011;6943;52.368;9.966;2023-05-10T09:55:12;2.40;;;2.20;;
13743;SDS011;6943;52.368;9.966;2023-05-10T09:57:38;2.30;;;2.10;;
13743;SDS011;6943;52.368;9.966;2023-05-10T10:00:04;3.90;;;2.80;;
13743;SDS011;6943;52.368;9.966;2023-05-10T10:02:31;2.47;;;2.27;;
13743;SDS011;6943;52.368;9.966;2023-05-10T10:04:57;2.70;;;2.50;;
13743;SDS011;6943;52.368;9.966;2023-05-10T10:07:23;2.60;;;2.40;;
13743;SDS011;6943;52.368;9.966;2023-05-10T10:09:50;3.03;;;2.23;;
13743;SDS011;6943;52.368;9.966;2023-05-10T10:12:16;2.83;;;2.63;;
13743;SDS011;6943;52.368;9.966;2023-05-10T10:14:42;3.20;;;2.70;;
13743;SDS011;6943;52.368;9.966;2023-05-10T10:17:08;2.83;;;2.63;;
13743;SDS011;6943;52.368;9.966;2023-05-10T10:19:35;2.60;;;2.40;;
13743;SDS011;6943;52.368;9.966;2023-05-10T10:22:01;3.20;;;2.90;;
13743;SDS011;6943;52.368;9.966;2023-05-10T10:24:27;3.07;;;2.87;;
13743;SDS011;6943;52.368;9.966;2023-05-10T10:26:54;3.10;;;2.90;;
13743;SDS011;6943;52.368;9.966;2023-05-10T10:29:26;3.03;;;2.60;;
13743;SDS011;6943;52.368;9.966;2023-05-10T10:32:10;2.70;;;2.50;;
13743;SDS011;6943;52.368;9.966;2023-05-10T10:34:38;3.10;;;2.50;;
13743;SDS011;6943;52.368;9.966;2023-05-10T10:37:04;2.63;;;2.43;;
13743;SDS011;6943;52.368;9.966;2023-05-10T10:39:31;3.40;;;3.10;;
13743;SDS011;6943;52.368;9.966;2023-05-10T10:41:57;3.10;;;2.50;;
13743;SDS011;6943;52.368;9.966;2023-05-10T10:49:50;3.60;;;3.20;;
13743;SDS011;6943;52.368;9.966;2023-05-10T10:54:51;3.97;;;3.27;;
13743;SDS011;6943;52.368;9.966;2023-05-10T10:57:18;4.03;;;3.20;;
13743;SDS011;6943;52.368;9.966;2023-05-10T10:59:46;3.30;;;3.00;;
13743;SDS011;6943;52.368;9.966;2023-05-10T11:04:57;3.20;;;3.00;;
13743;SDS011;6943;52.368;9.966;2023-05-10T11:07:23;4.73;;;3.40;;
13743;SDS011;6943;52.368;9.966;2023-05-10T11:09:49;3.57;;;3.27;;
13743;SDS011;6943;52.368;9.966;2023-05-10T11:12:15;3.80;;;3.40;;
13743;SDS011;6943;52.368;9.966;2023-05-10T11:14:41;4.90;;;3.30;;
13743;SDS011;6943;52.368;9.966;2023-05-10T11:17:23;4.00;;;3.03;;
13743;SDS011;6943;52.368;9.966;2023-05-10T11:20:02;3.83;;;2.90;;
13743;SDS011;6943;52.368;9.966;2023-05-10T11:22:28;4.53;;;3.07;;
13743;SDS011;6943;52.368;9.966;2023-05-10T11:24:57;3.30;;;2.93;;
13743;SDS011;6943;52.368;9.966;2023-05-10T11:27:24;8.17;;;2.90;;
13743;SDS011;6943;52.368;9.966;2023-05-10T11:29:52;4.23;;;2.90;;
13743;SDS011;6943;52.368;9.966;2023-05-10T11:32:19;4.50;;;2.90;;
13743;SDS011;6943;52.368;9.966;2023-05-10T11:34:46;5.13;;;2.50;;
13743;SDS011;6943;52.368;9.966;2023-05-10T11:37:13;4.70;;;3.07;;
13743;SDS011;6943;52.368;9.966;2023-05-10T11:39:39;3.40;;;2.53;;
13743;SDS011;6943;52.368;9.966;2023-05-10T11:42:12;2.67;;;2.43;;
13743;SDS011;6943;52.368;9.966;2023-05-10T11:44:38;3.43;;;2.70;;
13743;SDS011;6943;52.368;9.966;2023-05-10T11:47:04;3.57;;;2.63;;
13743;SDS011;6943;52.368;9.966;2023-05-10T11:49:30;3.50;;;2.37;;
13743;SDS011;6943;52.368;9.966;2023-05-10T11:52:06;2.50;;;2.30;;
13743;SDS011;6943;52.368;9.966;2023-05-10T11:54:32;2.83;;;2.13;;
13743;SDS011;6943;52.368;9.966;2023-05-10T11:56:59;2.40;;;2.23;;
13743;SDS011;6943;52.368;9.966;2023-05-10T11:59:25;3.00;;;2.80;;
13743;SDS011;6943;52.368;9.966;2023-05-10T12:01:52;2.67;;;2.47;;
13743;SDS011;6943;52.368;9.966;2023-05-10T12:04:17;3.80;;;2.73;;
13743;SDS011;6943;52.368;9.966;2023-05-10T12:06:44;2.97;;;2.47;;
13743;SDS011;6943;52.368;9.966;2023-05-10T12:09:11;4.40;;;3.07;;
13743;SDS011;6943;52.368;9.966;2023-05-10T12:11:38;3.77;;;2.80;;
13743;SDS011;6943;52.368;9.966;2023-05-10T12:14:05;2.83;;;2.63;;
13743;SDS011;6943;52.368;9.966;2023-05-10T12:16:31;4.70;;;3.20;;
13743;SDS011;6943;52.368;9.966;2023-05-10T12:18:58;3.30;;;2.47;;
13743;SDS011;6943;52.368;9.966;2023-05-10T12:21:24;3.83;;;3.13;;
13743;SDS011;6943;52.368;9.966;2023-05-10T12:23:52;4.03;;;3.07;;
13743;SDS011;6943;52.368;9.966;2023-05-10T12:26:18;4.20;;;3.47;;
13743;SDS011;6943;52.368;9.966;2023-05-10T12:28:44;4.20;;;2.97;;
13743;SDS011;6943;52.368;9.966;2023-05-10T12:31:10;3.67;;;2.83;;
13743;SDS011;6943;52.368;9.966;2023-05-10T12:33:37;4.03;;;3.57;;
13743;SDS011;6943;52.368;9.966;2023-05-10T12:36:04;5.07;;;3.73;;
13743;SDS011;6943;52.368;9.966;2023-05-10T12:38:35;5.10;;;3.60;;
13743;SDS011;6943;52.368;9.966;2023-05-10T12:41:03;3.83;;;3.33;;
13743;SDS011;6943;52.368;9.966;2023-05-10T12:43:29;4.03;;;3.40;;
13743;SDS011;6943;52.368;9.966;2023-05-10T12:45:55;4.67;;;3.67;;
13743;SDS011;6943;52.368;9.966;2023-05-10T12:48:21;4.50;;;3.60;;
13743;SDS011;6943;52.368;9.966;2023-05-10T12:50:47;4.03;;;3.73;;
13743;SDS011;6943;52.368;9.966;2023-05-10T12:53:13;4.37;;;3.93;;
13743;SDS011;6943;52.368;9.966;2023-05-10T12:55:43;3.87;;;3.47;;
13743;SDS011;6943;52.368;9.966;2023-05-10T12:58:09;4.20;;;3.37;;
13743;SDS011;6943;52.368;9.966;2023-05-10T13:00:35;3.87;;;3.47;;
13743;SDS011;6943;52.368;9.966;2023-05-10T13:03:03;4.00;;;3.60;;
13743;SDS011;6943;52.368;9.966;2023-05-10T13:05:30;5.10;;;3.40;;
13743;SDS011;6943;52.368;9.966;2023-05-10T13:07:55;6.00;;;3.87;;
13743;SDS011;6943;52.368;9.966;2023-05-10T13:10:21;5.03;;;3.70;;
13743;SDS011;6943;52.368;9.966;2023-05-10T13:12:48;4.37;;;3.53;;
13743;SDS011;6943;52.368;9.966;2023-05-10T13:15:14;5.07;;;3.83;;
13743;SDS011;6943;52.368;9.966;2023-05-10T13:17:40;4.60;;;3.60;;
13743;SDS011;6943;52.368;9.966;2023-05-10T13:20:07;5.17;;;4.00;;
13743;SDS011;6943;52.368;9.966;2023-05-10T13:22:34;5.33;;;3.70;;
13743;SDS011;6943;52.368;9.966;2023-05-10T13:25:00;5.03;;;3.67;;
13743;SDS011;6943;52.368;9.966;2023-05-10T13:27:26;3.57;;;3.27;;
13743;SDS011;6943;52.368;9.966;2023-05-10T13:29:52;5.30;;;3.60;;
13743;SDS011;6943;52.368;9.966;2023-05-10T13:32:18;4.30;;;3.70;;
13743;SDS011;6943;52.368;9.966;2023-05-10T13:34:44;4.30;;;3.90;;
13743;SDS011;6943;52.368;9.966;2023-05-10T13:37:10;4.77;;;3.93;;
13743;SDS011;6943;52.368;9.966;2023-05-10T13:39:36;5.43;;;3.50;;
13743;SDS011;6943;52.368;9.966;2023-05-10T13:42:02;4.20;;;3.63;;
13743;SDS011;6943;52.368;9.966;2023-05-10T13:44:28;3.87;;;3.20;;
13743;SDS011;6943;52.368;9.966;2023-05-10T13:46:54;3.77;;;3.37;;
13743;SDS011;6943;52.368;9.966;2023-05-10T13:49:20;5.17;;;2.60;;
13743;SDS011;6943;52.368;9.966;2023-05-10T13:51:46;2.80;;;2.50;;
13743;SDS011;6943;52.368;9.966;2023-05-10T13:54:12;3.87;;;3.20;;
13743;SDS011;6943;52.368;9.966;2023-05-10T13:56:39;3.00;;;2.70;;
13743;SDS011;6943;52.368;9.966;2023-05-10T13:59:05;3.40;;;2.43;;
13743;SDS011;6943;52.368;9.966;2023-05-10T14:01:32;3.33;;;3.03;;
13743;SDS011;6943;52.368;9.966;2023-05-10T14:03:58;3.90;;;3.40;;
13743;SDS011;6943;52.368;9.966;2023-05-10T14:06:24;3.37;;;3.07;;
13743;SDS011;6943;52.368;9.966;2023-05-10T14:08:51;3.20;;;2.90;;
13743;SDS011;6943;52.368;9.966;2023-05-10T14:11:18;2.67;;;2.47;;
13743;SDS011;6943;52.368;9.966;2023-05-10T14:13:44;5.10;;;3.00;;
13743;SDS011;6943;52.368;9.966;2023-05-10T14:16:10;5.97;;;3.93;;
13743;SDS011;6943;52.368;9.966;2023-05-10T14:18:36;4.07;;;3.30;;
13743;SDS011;6943;52.368;9.966;2023-05-10T14:21:02;4.03;;;3.37;;
13743;SDS011;6943;52.368;9.966;2023-05-10T14:23:28;4.20;;;3.50;;
13743;SDS011;6943;52.368;9.966;2023-05-10T14:25:55;4.40;;;3.20;;
13743;SDS011;6943;52.368;9.966;2023-05-10T14:28:21;4.13;;;3.73;;
13743;SDS011;6943;52.368;9.966;2023-05-10T14:30:48;4.87;;;3.30;;
13743;SDS011;6943;52.368;9.966;2023-05-10T14:33:14;3.23;;;2.80;;
13743;SDS011;6943;52.368;9.966;2023-05-10T14:35:40;4.30;;;2.80;;
13743;SDS011;6943;52.368;9.966;2023-05-10T14:38:06;3.07;;;2.10;;
13743;SDS011;6943;52.368;9.966;2023-05-10T14:40:32;4.13;;;2.87;;
13743;SDS011;6943;52.368;9.966;2023-05-10T14:42:58;2.23;;;2.13;;
13743;SDS011;6943;52.368;9.966;2023-05-10T14:45:24;3.53;;;2.10;;
13743;SDS011;6943;52.368;9.966;2023-05-10T14:47:50;6.70;;;2.83;;
13743;SDS011;6943;52.368;9.966;2023-05-10T14:50:16;2.40;;;1.90;;
13743;SDS011;6943;52.368;9.966;2023-05-10T14:52:42;2.00;;;1.80;;
13743;SDS011;6943;52.368;9.966;2023-05-10T14:55:08;2.30;;;2.10;;
13743;SDS011;6943;52.368;9.966;2023-05-10T14:57:34;2.77;;;1.80;;
13743;SDS011;6943;52.368;9.966;2023-05-10T15:00:01;1.47;;;1.37;;
13743;SDS011;6943;52.368;9.966;2023-05-10T15:02:27;5.90;;;5.07;;
13743;SDS011;6943;52.368;9.966;2023-05-10T15:04:53;7.23;;;5.50;;
13743;SDS011;6943;52.368;9.966;2023-05-10T15:07:19;8.17;;;5.60;;
13743;SDS011;6943;52.368;9.966;2023-05-10T15:09:45;7.50;;;5.93;;
13743;SDS011;6943;52.368;9.966;2023-05-10T15:12:11;9.90;;;7.10;;
13743;SDS011;6943;52.368;9.966;2023-05-10T15:14:37;9.97;;;6.93;;
13743;SDS011;6943;52.368;9.966;2023-05-10T15:17:03;10.97;;;7.97;;
13743;SDS011;6943;52.368;9.966;2023-05-10T15:19:29;10.10;;;7.50;;
13743;SDS011;6943;52.368;9.966;2023-05-10T15:21:55;12.30;;;10.03;;